sensor_id;sensor_type;location;lat;lon;timestamp;temperature;humidity
70074;DHT22;57445;51.058;3.698;2023-01-16T00:01:47;6.10;99.90
70074;DHT22;57445;51.058;3.698;2023-01-16T00:04:16;6.00;99.90
70074;DHT22;57445;51.058;3.698;2023-01-16T00:06:44;6.30;99.90
70074;DHT22;57445;51.058;3.698;2023-01-16T00:09:12;6.00;99.90
70074;DHT22;57445;51.058;3.698;2023-01-16T00:11:40;5.70;99.90
70074;DHT22;57445;51.058;3.698;2023-01-16T00:14:07;5.60;99.90
70074;DHT22;57445;51.058;3.698;2023-01-16T00:16:35;5.70;99.90
70074;DHT22;57445;51.058;3.698;2023-01-16T00:19:03;6.00;99.90
70074;DHT22;57445;51.058;3.698;2023-01-16T00:21:32;5.90;99.90
70074;DHT22;57445;51.058;3.698;2023-01-16T00:23:59;5.70;99.90
70074;DHT22;57445;51.058;3.698;2023-01-16T00:26:27;5.70;99.90
70074;DHT22;57445;51.058;3.698;2023-01-16T00:28:55;5.50;99.90
70074;DHT22;57445;51.058;3.698;2023-01-16T00:31:23;5.40;99.90
70074;DHT22;57445;51.058;3.698;2023-01-16T00:33:52;5.50;99.90
70074;DHT22;57445;51.058;3.698;2023-01-16T00:36:19;5.60;99.90
70074;DHT22;57445;51.058;3.698;2023-01-16T00:38:48;5.70;99.90
70074;DHT22;57445;51.058;3.698;2023-01-16T00:41:16;5.90;99.90
70074;DHT22;57445;51.058;3.698;2023-01-16T00:43:44;5.90;99.90
70074;DHT22;57445;51.058;3.698;2023-01-16T00:46:11;5.90;99.90
70074;DHT22;57445;51.058;3.698;2023-01-16T00:48:43;6.20;99.90
70074;DHT22;57445;51.058;3.698;2023-01-16T00:51:11;6.30;99.90
70074;DHT22;57445;51.058;3.698;2023-01-16T00:53:39;6.60;99.90
70074;DHT22;57445;51.058;3.698;2023-01-16T00:56:08;6.50;99.90
70074;DHT22;57445;51.058;3.698;2023-01-16T00:58:35;6.50;99.90
70074;DHT22;57445;51.058;3.698;2023-01-16T01:01:03;6.40;99.90
70074;DHT22;57445;51.058;3.698;2023-01-16T01:03:31;6.30;99.90
70074;DHT22;57445;51.058;3.698;2023-01-16T01:05:59;6.20;99.90
70074;DHT22;57445;51.058;3.698;2023-01-16T01:08:31;6.20;99.90
70074;DHT22;57445;51.058;3.698;2023-01-16T01:11:05;6.20;99.90
70074;DHT22;57445;51.058;3.698;2023-01-16T01:13:34;6.20;99.90
70074;DHT22;57445;51.058;3.698;2023-01-16T01:16:01;6.30;99.90
70074;DHT22;57445;51.058;3.698;2023-01-16T01:18:33;6.50;99.90
70074;DHT22;57445;51.058;3.698;2023-01-16T01:21:01;6.60;99.90
70074;DHT22;57445;51.058;3.698;2023-01-16T01:23:29;6.70;99.90
70074;DHT22;57445;51.058;3.698;2023-01-16T01:25:57;6.80;99.90
70074;DHT22;57445;51.058;3.698;2023-01-16T01:28:24;6.70;99.90
70074;DHT22;57445;51.058;3.698;2023-01-16T01:30:58;6.70;99.90
70074;DHT22;57445;51.058;3.698;2023-01-16T01:33:28;6.70;99.90
70074;DHT22;57445;51.058;3.698;2023-01-16T01:35:56;6.50;99.90
70074;DHT22;57445;51.058;3.698;2023-01-16T01:38:28;6.60;99.90
70074;DHT22;57445;51.058;3.698;2023-01-16T01:40:55;6.60;99.90
70074;DHT22;57445;51.058;3.698;2023-01-16T01:43:37;6.60;99.90
70074;DHT22;57445;51.058;3.698;2023-01-16T01:46:07;7.00;99.90
70074;DHT22;57445;51.058;3.698;2023-01-16T01:48:41;6.80;99.90
70074;DHT22;57445;51.058;3.698;2023-01-16T01:51:09;7.40;99.90
70074;DHT22;57445;51.058;3.698;2023-01-16T01:53:38;7.00;99.90
70074;DHT22;57445;51.058;3.698;2023-01-16T01:56:08;7.10;99.90
70074;DHT22;57445;51.058;3.698;2023-01-16T01:58:37;7.10;99.90
70074;DHT22;57445;51.058;3.698;2023-01-16T02:01:07;7.10;99.90
70074;DHT22;57445;51.058;3.698;2023-01-16T02:03:35;6.90;99.90
70074;DHT22;57445;51.058;3.698;2023-01-16T02:06:05;6.90;99.90
70074;DHT22;57445;51.058;3.698;2023-01-16T02:08:39;7.00;99.90
70074;DHT22;57445;51.058;3.698;2023-01-16T02:11:16;7.10;99.90
70074;DHT22;57445;51.058;3.698;2023-01-16T02:13:53;7.00;99.90
70074;DHT22;57445;51.058;3.698;2023-01-16T02:16:22;7.10;99.90
70074;DHT22;57445;51.058;3.698;2023-01-16T02:19:08;7.00;99.90
70074;DHT22;57445;51.058;3.698;2023-01-16T02:21:52;7.00;99.90
70074;DHT22;57445;51.058;3.698;2023-01-16T02:24:49;7.20;99.90
70074;DHT22;57445;51.058;3.698;2023-01-16T02:27:31;7.30;99.90
70074;DHT22;57445;51.058;3.698;2023-01-16T02:30:14;7.30;99.90
70074;DHT22;57445;51.058;3.698;2023-01-16T02:32:47;7.30;99.90
70074;DHT22;57445;51.058;3.698;2023-01-16T02:35:21;7.10;99.90
70074;DHT22;57445;51.058;3.698;2023-01-16T02:37:54;7.20;99.90
70074;DHT22;57445;51.058;3.698;2023-01-16T02:40:30;7.10;99.90
70074;DHT22;57445;51.058;3.698;2023-01-16T02:43:04;7.30;99.90
70074;DHT22;57445;51.058;3.698;2023-01-16T02:45:40;7.30;99.90
70074;DHT22;57445;51.058;3.698;2023-01-16T02:48:19;7.40;99.90
70074;DHT22;57445;51.058;3.698;2023-01-16T02:50:51;7.40;99.90
70074;DHT22;57445;51.058;3.698;2023-01-16T02:53:21;7.50;99.90
70074;DHT22;57445;51.058;3.698;2023-01-16T02:55:50;7.30;99.90
70074;DHT22;57445;51.058;3.698;2023-01-16T02:58:19;7.50;99.90
70074;DHT22;57445;51.058;3.698;2023-01-16T03:00:50;7.70;99.90
70074;DHT22;57445;51.058;3.698;2023-01-16T03:03:24;7.40;99.90
70074;DHT22;57445;51.058;3.698;2023-01-16T03:05:57;7.50;99.90
70074;DHT22;57445;51.058;3.698;2023-01-16T03:08:33;7.60;99.90
70074;DHT22;57445;51.058;3.698;2023-01-16T03:11:12;7.80;99.90
70074;DHT22;57445;51.058;3.698;2023-01-16T03:16:33;7.80;99.90
70074;DHT22;57445;51.058;3.698;2023-01-16T03:19:09;7.90;99.90
70074;DHT22;57445;51.058;3.698;2023-01-16T03:21:41;8.10;99.90
70074;DHT22;57445;51.058;3.698;2023-01-16T03:24:12;8.10;99.90
70074;DHT22;57445;51.058;3.698;2023-01-16T03:26:42;8.20;99.90
70074;DHT22;57445;51.058;3.698;2023-01-16T03:29:11;8.30;99.90
70074;DHT22;57445;51.058;3.698;2023-01-16T03:31:44;8.30;99.90
70074;DHT22;57445;51.058;3.698;2023-01-16T03:34:17;8.30;99.90
70074;DHT22;57445;51.058;3.698;2023-01-16T03:36:48;8.30;99.90
70074;DHT22;57445;51.058;3.698;2023-01-16T03:39:18;8.10;99.90
70074;DHT22;57445;51.058;3.698;2023-01-16T03:41:48;7.80;99.90
70074;DHT22;57445;51.058;3.698;2023-01-16T03:44:17;8.00;99.90
70074;DHT22;57445;51.058;3.698;2023-01-16T03:46:51;8.00;99.90
70074;DHT22;57445;51.058;3.698;2023-01-16T03:49:20;7.90;99.90
70074;DHT22;57445;51.058;3.698;2023-01-16T03:51:49;8.10;99.90
70074;DHT22;57445;51.058;3.698;2023-01-16T03:54:24;8.20;99.90
70074;DHT22;57445;51.058;3.698;2023-01-16T03:57:00;8.10;99.90
70074;DHT22;57445;51.058;3.698;2023-01-16T03:59:31;8.20;99.90
70074;DHT22;57445;51.058;3.698;2023-01-16T04:01:59;8.30;99.90
70074;DHT22;57445;51.058;3.698;2023-01-16T04:04:31;8.10;99.90
70074;DHT22;57445;51.058;3.698;2023-01-16T04:07:05;8.20;99.90
70074;DHT22;57445;51.058;3.698;2023-01-16T04:09:40;8.30;99.90
70074;DHT22;57445;51.058;3.698;2023-01-16T04:12:09;8.20;99.90
70074;DHT22;57445;51.058;3.698;2023-01-16T04:14:42;8.20;99.90
70074;DHT22;57445;51.058;3.698;2023-01-16T04:17:16;8.30;99.90
70074;DHT22;57445;51.058;3.698;2023-01-16T04:19:45;8.20;99.90
70074;DHT22;57445;51.058;3.698;2023-01-16T04:22:18;8.10;99.90
70074;DHT22;57445;51.058;3.698;2023-01-16T04:24:46;8.20;99.90
70074;DHT22;57445;51.058;3.698;2023-01-16T04:27:20;8.20;99.90
70074;DHT22;57445;51.058;3.698;2023-01-16T04:29:48;8.20;99.90
70074;DHT22;57445;51.058;3.698;2023-01-16T04:32:15;8.20;99.90
70074;DHT22;57445;51.058;3.698;2023-01-16T04:34:43;8.00;99.90
70074;DHT22;57445;51.058;3.698;2023-01-16T04:37:16;8.10;99.90
70074;DHT22;57445;51.058;3.698;2023-01-16T04:39:44;8.10;99.90
70074;DHT22;57445;51.058;3.698;2023-01-16T04:42:18;8.20;99.90
70074;DHT22;57445;51.058;3.698;2023-01-16T04:44:50;8.10;99.90
70074;DHT22;57445;51.058;3.698;2023-01-16T04:47:22;8.10;99.90
70074;DHT22;57445;51.058;3.698;2023-01-16T04:49:54;8.10;99.90
70074;DHT22;57445;51.058;3.698;2023-01-16T04:52:23;8.00;99.90
70074;DHT22;57445;51.058;3.698;2023-01-16T04:54:50;8.00;99.90
70074;DHT22;57445;51.058;3.698;2023-01-16T04:57:22;7.90;99.90
70074;DHT22;57445;51.058;3.698;2023-01-16T04:59:50;8.00;99.90
70074;DHT22;57445;51.058;3.698;2023-01-16T05:02:17;8.00;99.90
70074;DHT22;57445;51.058;3.698;2023-01-16T05:04:45;8.00;99.90
70074;DHT22;57445;51.058;3.698;2023-01-16T05:07:17;8.10;99.90
70074;DHT22;57445;51.058;3.698;2023-01-16T05:09:46;8.10;99.90
70074;DHT22;57445;51.058;3.698;2023-01-16T05:12:19;7.90;99.90
70074;DHT22;57445;51.058;3.698;2023-01-16T05:14:50;7.80;99.90
70074;DHT22;57445;51.058;3.698;2023-01-16T05:17:18;7.80;99.90
70074;DHT22;57445;51.058;3.698;2023-01-16T05:19:48;7.80;99.90
70074;DHT22;57445;51.058;3.698;2023-01-16T05:22:16;7.80;99.90
70074;DHT22;57445;51.058;3.698;2023-01-16T05:24:49;7.80;99.90
70074;DHT22;57445;51.058;3.698;2023-01-16T05:27:17;7.80;99.90
70074;DHT22;57445;51.058;3.698;2023-01-16T05:29:49;7.60;99.90
70074;DHT22;57445;51.058;3.698;2023-01-16T05:32:16;7.60;99.90
70074;DHT22;57445;51.058;3.698;2023-01-16T05:34:48;7.60;99.90
70074;DHT22;57445;51.058;3.698;2023-01-16T05:37:16;7.70;99.90
70074;DHT22;57445;51.058;3.698;2023-01-16T05:39:43;7.80;99.90
70074;DHT22;57445;51.058;3.698;2023-01-16T05:42:13;7.70;99.90
70074;DHT22;57445;51.058;3.698;2023-01-16T05:44:48;7.70;99.90
70074;DHT22;57445;51.058;3.698;2023-01-16T05:47:15;7.70;99.90
70074;DHT22;57445;51.058;3.698;2023-01-16T05:49:42;7.80;99.90
70074;DHT22;57445;51.058;3.698;2023-01-16T05:52:10;8.00;99.90
70074;DHT22;57445;51.058;3.698;2023-01-16T05:54:38;8.00;99.90
70074;DHT22;57445;51.058;3.698;2023-01-16T05:57:10;7.80;99.90
70074;DHT22;57445;51.058;3.698;2023-01-16T05:59:40;7.90;99.90
70074;DHT22;57445;51.058;3.698;2023-01-16T06:02:11;7.80;99.90
70074;DHT22;57445;51.058;3.698;2023-01-16T06:04:43;7.50;99.90
70074;DHT22;57445;51.058;3.698;2023-01-16T06:07:15;7.60;99.90
70074;DHT22;57445;51.058;3.698;2023-01-16T06:09:43;7.60;99.90
70074;DHT22;57445;51.058;3.698;2023-01-16T06:12:12;7.70;99.90
70074;DHT22;57445;51.058;3.698;2023-01-16T06:14:47;7.90;99.90
70074;DHT22;57445;51.058;3.698;2023-01-16T06:17:14;7.80;99.90
70074;DHT22;57445;51.058;3.698;2023-01-16T06:19:46;7.90;99.90
70074;DHT22;57445;51.058;3.698;2023-01-16T06:22:14;7.70;99.90
70074;DHT22;57445;51.058;3.698;2023-01-16T06:24:46;7.50;99.90
70074;DHT22;57445;51.058;3.698;2023-01-16T06:27:13;7.60;99.90
70074;DHT22;57445;51.058;3.698;2023-01-16T06:29:41;7.60;99.90
70074;DHT22;57445;51.058;3.698;2023-01-16T06:32:10;7.40;99.90
70074;DHT22;57445;51.058;3.698;2023-01-16T06:34:38;7.40;99.90
70074;DHT22;57445;51.058;3.698;2023-01-16T06:37:10;7.60;99.90
70074;DHT22;57445;51.058;3.698;2023-01-16T06:39:38;7.50;99.90
70074;DHT22;57445;51.058;3.698;2023-01-16T06:42:06;7.60;99.90
70074;DHT22;57445;51.058;3.698;2023-01-16T06:44:34;7.70;99.90
70074;DHT22;57445;51.058;3.698;2023-01-16T06:47:02;7.70;99.90
70074;DHT22;57445;51.058;3.698;2023-01-16T06:49:31;7.70;99.90
70074;DHT22;57445;51.058;3.698;2023-01-16T06:51:59;7.50;99.90
70074;DHT22;57445;51.058;3.698;2023-01-16T06:54:27;7.40;99.90
70074;DHT22;57445;51.058;3.698;2023-01-16T06:56:54;7.40;99.90
70074;DHT22;57445;51.058;3.698;2023-01-16T06:59:22;7.50;99.90
70074;DHT22;57445;51.058;3.698;2023-01-16T07:01:49;7.50;99.90
70074;DHT22;57445;51.058;3.698;2023-01-16T07:04:17;7.50;99.90
70074;DHT22;57445;51.058;3.698;2023-01-16T07:06:47;7.50;99.90
70074;DHT22;57445;51.058;3.698;2023-01-16T07:09:16;7.40;99.90
70074;DHT22;57445;51.058;3.698;2023-01-16T07:11:44;7.60;99.90
70074;DHT22;57445;51.058;3.698;2023-01-16T07:14:16;7.50;99.90
70074;DHT22;57445;51.058;3.698;2023-01-16T07:17:01;7.60;99.90
70074;DHT22;57445;51.058;3.698;2023-01-16T07:19:46;7.50;99.90
70074;DHT22;57445;51.058;3.698;2023-01-16T07:22:33;7.70;99.90
70074;DHT22;57445;51.058;3.698;2023-01-16T07:25:06;7.90;99.90
70074;DHT22;57445;51.058;3.698;2023-01-16T07:27:35;7.70;99.90
70074;DHT22;57445;51.058;3.698;2023-01-16T07:30:03;7.80;99.90
70074;DHT22;57445;51.058;3.698;2023-01-16T07:32:30;8.20;99.90
70074;DHT22;57445;51.058;3.698;2023-01-16T07:34:58;7.90;99.90
70074;DHT22;57445;51.058;3.698;2023-01-16T07:37:25;8.00;99.90
70074;DHT22;57445;51.058;3.698;2023-01-16T07:39:54;8.00;99.90
70074;DHT22;57445;51.058;3.698;2023-01-16T07:42:23;8.00;99.90
70074;DHT22;57445;51.058;3.698;2023-01-16T07:44:55;8.00;99.90
70074;DHT22;57445;51.058;3.698;2023-01-16T07:47:23;7.80;99.90
70074;DHT22;57445;51.058;3.698;2023-01-16T07:49:50;8.00;99.90
70074;DHT22;57445;51.058;3.698;2023-01-16T07:52:22;8.00;99.90
70074;DHT22;57445;51.058;3.698;2023-01-16T07:54:56;8.10;99.90
70074;DHT22;57445;51.058;3.698;2023-01-16T07:57:23;8.20;99.90
70074;DHT22;57445;51.058;3.698;2023-01-16T07:59:52;8.20;99.90
70074;DHT22;57445;51.058;3.698;2023-01-16T08:02:26;8.30;99.90
70074;DHT22;57445;51.058;3.698;2023-01-16T08:04:54;8.30;99.90
70074;DHT22;57445;51.058;3.698;2023-01-16T08:07:26;8.20;99.90
70074;DHT22;57445;51.058;3.698;2023-01-16T08:09:59;8.40;99.90
70074;DHT22;57445;51.058;3.698;2023-01-16T08:12:26;8.20;99.90
70074;DHT22;57445;51.058;3.698;2023-01-16T08:14:58;8.40;99.90
70074;DHT22;57445;51.058;3.698;2023-01-16T08:17:26;8.40;99.90
70074;DHT22;57445;51.058;3.698;2023-01-16T08:19:54;8.70;99.90
70074;DHT22;57445;51.058;3.698;2023-01-16T08:22:22;8.40;99.90
70074;DHT22;57445;51.058;3.698;2023-01-16T08:24:54;8.30;99.90
70074;DHT22;57445;51.058;3.698;2023-01-16T08:27:27;8.50;99.90
70074;DHT22;57445;51.058;3.698;2023-01-16T08:30:00;8.60;99.90
70074;DHT22;57445;51.058;3.698;2023-01-16T08:32:28;8.60;99.90
70074;DHT22;57445;51.058;3.698;2023-01-16T08:34:55;8.70;99.90
70074;DHT22;57445;51.058;3.698;2023-01-16T08:37:23;9.20;99.90
70074;DHT22;57445;51.058;3.698;2023-01-16T08:39:50;8.90;99.90
70074;DHT22;57445;51.058;3.698;2023-01-16T08:42:18;9.00;99.90
70074;DHT22;57445;51.058;3.698;2023-01-16T08:45:14;8.70;99.90
70074;DHT22;57445;51.058;3.698;2023-01-16T08:48:04;8.60;99.90
70074;DHT22;57445;51.058;3.698;2023-01-16T08:50:56;8.60;99.90
70074;DHT22;57445;51.058;3.698;2023-01-16T08:53:46;8.50;99.90
70074;DHT22;57445;51.058;3.698;2023-01-16T08:56:14;8.40;99.90
70074;DHT22;57445;51.058;3.698;2023-01-16T08:58:46;8.40;99.90
70074;DHT22;57445;51.058;3.698;2023-01-16T09:01:19;8.30;99.90
70074;DHT22;57445;51.058;3.698;2023-01-16T09:03:47;8.30;99.90
70074;DHT22;57445;51.058;3.698;2023-01-16T09:06:14;8.50;99.90
70074;DHT22;57445;51.058;3.698;2023-01-16T09:08:47;8.70;99.90
70074;DHT22;57445;51.058;3.698;2023-01-16T09:11:14;8.60;99.90
70074;DHT22;57445;51.058;3.698;2023-01-16T09:14:03;8.60;99.90
70074;DHT22;57445;51.058;3.698;2023-01-16T09:16:32;8.70;99.90
70074;DHT22;57445;51.058;3.698;2023-01-16T09:19:04;8.70;99.90
70074;DHT22;57445;51.058;3.698;2023-01-16T09:21:36;8.50;99.90
70074;DHT22;57445;51.058;3.698;2023-01-16T09:24:04;8.30;99.90
70074;DHT22;57445;51.058;3.698;2023-01-16T09:26:36;8.40;99.90
70074;DHT22;57445;51.058;3.698;2023-01-16T09:29:08;8.40;99.90
70074;DHT22;57445;51.058;3.698;2023-01-16T09:31:37;8.40;99.90
70074;DHT22;57445;51.058;3.698;2023-01-16T09:34:05;8.60;99.90
70074;DHT22;57445;51.058;3.698;2023-01-16T09:36:32;8.60;99.90
70074;DHT22;57445;51.058;3.698;2023-01-16T09:39:00;8.70;99.90
70074;DHT22;57445;51.058;3.698;2023-01-16T09:41:32;8.70;99.90
70074;DHT22;57445;51.058;3.698;2023-01-16T09:44:20;8.60;99.90
70074;DHT22;57445;51.058;3.698;2023-01-16T09:46:50;8.70;99.90
70074;DHT22;57445;51.058;3.698;2023-01-16T09:49:23;8.50;99.90
70074;DHT22;57445;51.058;3.698;2023-01-16T09:51:54;8.50;99.90
70074;DHT22;57445;51.058;3.698;2023-01-16T09:54:44;8.30;99.90
70074;DHT22;57445;51.058;3.698;2023-01-16T09:57:31;8.50;99.90
70074;DHT22;57445;51.058;3.698;2023-01-16T10:00:18;8.30;99.90
70074;DHT22;57445;51.058;3.698;2023-01-16T10:02:48;8.30;99.90
70074;DHT22;57445;51.058;3.698;2023-01-16T10:05:20;8.40;99.90
70074;DHT22;57445;51.058;3.698;2023-01-16T10:07:49;8.50;99.90
70074;DHT22;57445;51.058;3.698;2023-01-16T10:10:28;8.70;99.50
70074;DHT22;57445;51.058;3.698;2023-01-16T10:13:01;8.40;99.90
70074;DHT22;57445;51.058;3.698;2023-01-16T10:15:34;8.50;99.90
70074;DHT22;57445;51.058;3.698;2023-01-16T10:18:09;8.80;99.10
70074;DHT22;57445;51.058;3.698;2023-01-16T10:20:45;8.70;99.90
70074;DHT22;57445;51.058;3.698;2023-01-16T10:23:19;8.80;99.90
70074;DHT22;57445;51.058;3.698;2023-01-16T10:25:56;8.90;99.90
70074;DHT22;57445;51.058;3.698;2023-01-16T10:28:28;8.90;99.40
70074;DHT22;57445;51.058;3.698;2023-01-16T10:31:03;9.10;99.10
70074;DHT22;57445;51.058;3.698;2023-01-16T10:33:36;9.20;98.70
70074;DHT22;57445;51.058;3.698;2023-01-16T10:36:08;9.20;99.00
70074;DHT22;57445;51.058;3.698;2023-01-16T10:38:42;9.00;99.50
70074;DHT22;57445;51.058;3.698;2023-01-16T10:41:12;9.20;99.10
70074;DHT22;57445;51.058;3.698;2023-01-16T10:44:03;9.50;98.50
70074;DHT22;57445;51.058;3.698;2023-01-16T10:46:50;9.80;98.20
70074;DHT22;57445;51.058;3.698;2023-01-16T10:49:37;9.90;97.80
70074;DHT22;57445;51.058;3.698;2023-01-16T10:52:04;10.10;97.40
70074;DHT22;57445;51.058;3.698;2023-01-16T10:54:37;10.20;97.20
70074;DHT22;57445;51.058;3.698;2023-01-16T10:57:11;10.20;97.30
70074;DHT22;57445;51.058;3.698;2023-01-16T10:59:41;10.50;96.90
70074;DHT22;57445;51.058;3.698;2023-01-16T11:02:14;10.70;96.30
70074;DHT22;57445;51.058;3.698;2023-01-16T11:04:44;11.20;96.10
70074;DHT22;57445;51.058;3.698;2023-01-16T11:07:17;10.60;96.30
70074;DHT22;57445;51.058;3.698;2023-01-16T11:09:50;10.70;96.20
70074;DHT22;57445;51.058;3.698;2023-01-16T11:12:20;10.70;96.30
70074;DHT22;57445;51.058;3.698;2023-01-16T11:15:09;10.70;96.40
70074;DHT22;57445;51.058;3.698;2023-01-16T11:17:57;11.10;95.20
70074;DHT22;57445;51.058;3.698;2023-01-16T11:20:44;10.80;95.80
70074;DHT22;57445;51.058;3.698;2023-01-16T11:23:21;10.60;96.40
70074;DHT22;57445;51.058;3.698;2023-01-16T11:25:54;10.40;96.30
70074;DHT22;57445;51.058;3.698;2023-01-16T11:28:25;10.20;96.70
70074;DHT22;57445;51.058;3.698;2023-01-16T11:30:54;10.40;96.80
70074;DHT22;57445;51.058;3.698;2023-01-16T11:33:23;10.70;96.50
70074;DHT22;57445;51.058;3.698;2023-01-16T11:35:53;10.90;95.60
70074;DHT22;57445;51.058;3.698;2023-01-16T11:38:22;10.60;96.20
70074;DHT22;57445;51.058;3.698;2023-01-16T11:40:50;10.50;96.80
70074;DHT22;57445;51.058;3.698;2023-01-16T11:43:21;10.70;96.50
70074;DHT22;57445;51.058;3.698;2023-01-16T11:46:09;10.60;96.40
70074;DHT22;57445;51.058;3.698;2023-01-16T11:48:50;10.80;95.90
70074;DHT22;57445;51.058;3.698;2023-01-16T11:51:21;10.70;96.00
70074;DHT22;57445;51.058;3.698;2023-01-16T11:53:51;10.30;96.80
70074;DHT22;57445;51.058;3.698;2023-01-16T11:56:26;10.00;96.90
70074;DHT22;57445;51.058;3.698;2023-01-16T11:58:59;10.10;97.40
70074;DHT22;57445;51.058;3.698;2023-01-16T12:01:41;10.20;97.30
70074;DHT22;57445;51.058;3.698;2023-01-16T12:04:29;10.30;97.30
70074;DHT22;57445;51.058;3.698;2023-01-16T12:07:04;10.20;97.40
70074;DHT22;57445;51.058;3.698;2023-01-16T12:09:40;10.30;96.80
70074;DHT22;57445;51.058;3.698;2023-01-16T12:12:11;10.20;97.00
70074;DHT22;57445;51.058;3.698;2023-01-16T12:15:02;10.00;97.50
70074;DHT22;57445;51.058;3.698;2023-01-16T12:17:41;10.20;97.60
70074;DHT22;57445;51.058;3.698;2023-01-16T12:20:16;10.20;97.70
70074;DHT22;57445;51.058;3.698;2023-01-16T12:22:50;10.20;97.40
70074;DHT22;57445;51.058;3.698;2023-01-16T12:25:24;10.30;97.40
70074;DHT22;57445;51.058;3.698;2023-01-16T12:28:00;10.40;97.50
70074;DHT22;57445;51.058;3.698;2023-01-16T12:30:33;10.20;97.60
70074;DHT22;57445;51.058;3.698;2023-01-16T12:33:03;10.50;97.40
70074;DHT22;57445;51.058;3.698;2023-01-16T12:35:46;10.20;97.60
70074;DHT22;57445;51.058;3.698;2023-01-16T12:38:17;9.60;98.80
70074;DHT22;57445;51.058;3.698;2023-01-16T12:43:45;9.40;99.40
70074;DHT22;57445;51.058;3.698;2023-01-16T12:46:18;9.70;98.90
70074;DHT22;57445;51.058;3.698;2023-01-16T12:48:53;9.80;98.90
70074;DHT22;57445;51.058;3.698;2023-01-16T12:51:28;9.60;99.10
70074;DHT22;57445;51.058;3.698;2023-01-16T12:54:05;9.60;99.50
70074;DHT22;57445;51.058;3.698;2023-01-16T12:56:43;9.40;99.80
70074;DHT22;57445;51.058;3.698;2023-01-16T12:59:17;9.50;99.90
70074;DHT22;57445;51.058;3.698;2023-01-16T13:01:46;9.60;99.70
70074;DHT22;57445;51.058;3.698;2023-01-16T13:04:15;9.30;99.90
70074;DHT22;57445;51.058;3.698;2023-01-16T13:06:46;9.10;99.90
70074;DHT22;57445;51.058;3.698;2023-01-16T13:09:17;8.70;99.90
70074;DHT22;57445;51.058;3.698;2023-01-16T13:11:54;8.50;99.90
70074;DHT22;57445;51.058;3.698;2023-01-16T13:14:45;8.20;99.90
70074;DHT22;57445;51.058;3.698;2023-01-16T13:17:15;8.30;99.90
70074;DHT22;57445;51.058;3.698;2023-01-16T13:19:49;8.50;99.90
70074;DHT22;57445;51.058;3.698;2023-01-16T13:22:20;8.70;99.90
70074;DHT22;57445;51.058;3.698;2023-01-16T13:24:53;9.10;99.90
70074;DHT22;57445;51.058;3.698;2023-01-16T13:27:30;8.70;99.90
70074;DHT22;57445;51.058;3.698;2023-01-16T13:30:00;7.90;99.90
70074;DHT22;57445;51.058;3.698;2023-01-16T13:32:34;7.70;99.90
70074;DHT22;57445;51.058;3.698;2023-01-16T13:35:04;7.50;99.90
70074;DHT22;57445;51.058;3.698;2023-01-16T13:43:19;7.10;99.90
70074;DHT22;57445;51.058;3.698;2023-01-16T13:46:06;7.90;99.90
70074;DHT22;57445;51.058;3.698;2023-01-16T13:48:39;8.20;99.90
70074;DHT22;57445;51.058;3.698;2023-01-16T13:51:09;8.30;99.90
70074;DHT22;57445;51.058;3.698;2023-01-16T13:53:38;8.50;99.90
70074;DHT22;57445;51.058;3.698;2023-01-16T13:56:12;8.60;99.90
70074;DHT22;57445;51.058;3.698;2023-01-16T13:58:42;8.40;99.90
70074;DHT22;57445;51.058;3.698;2023-01-16T14:01:29;8.00;99.90
70074;DHT22;57445;51.058;3.698;2023-01-16T14:04:24;8.00;99.90
70074;DHT22;57445;51.058;3.698;2023-01-16T14:06:58;8.00;99.90
70074;DHT22;57445;51.058;3.698;2023-01-16T14:12:35;8.20;99.90
70074;DHT22;57445;51.058;3.698;2023-01-16T14:15:16;8.00;99.90
70074;DHT22;57445;51.058;3.698;2023-01-16T14:18:15;7.60;99.90
70074;DHT22;57445;51.058;3.698;2023-01-16T14:20:44;7.20;99.90
70074;DHT22;57445;51.058;3.698;2023-01-16T14:23:18;6.70;99.90
70074;DHT22;57445;51.058;3.698;2023-01-16T14:26:12;6.30;99.90
70074;DHT22;57445;51.058;3.698;2023-01-16T14:28:42;6.00;99.90
70074;DHT22;57445;51.058;3.698;2023-01-16T14:31:22;5.80;99.90
70074;DHT22;57445;51.058;3.698;2023-01-16T14:33:51;5.60;99.90
70074;DHT22;57445;51.058;3.698;2023-01-16T14:36:20;5.60;99.90
70074;DHT22;57445;51.058;3.698;2023-01-16T14:38:48;5.40;99.90
70074;DHT22;57445;51.058;3.698;2023-01-16T14:41:21;5.30;99.90
70074;DHT22;57445;51.058;3.698;2023-01-16T14:44:16;5.30;99.90
70074;DHT22;57445;51.058;3.698;2023-01-16T14:47:10;5.20;99.90
70074;DHT22;57445;51.058;3.698;2023-01-16T14:50:04;5.20;99.90
70074;DHT22;57445;51.058;3.698;2023-01-16T14:52:52;5.10;99.90
70074;DHT22;57445;51.058;3.698;2023-01-16T14:55:45;5.20;99.90
70074;DHT22;57445;51.058;3.698;2023-01-16T14:58:16;5.30;99.90
70074;DHT22;57445;51.058;3.698;2023-01-16T15:00:44;5.10;99.90
70074;DHT22;57445;51.058;3.698;2023-01-16T15:03:14;5.20;99.90
70074;DHT22;57445;51.058;3.698;2023-01-16T15:05:45;5.20;99.90
70074;DHT22;57445;51.058;3.698;2023-01-16T15:08:25;5.30;99.90
70074;DHT22;57445;51.058;3.698;2023-01-16T15:10:54;5.30;99.90
70074;DHT22;57445;51.058;3.698;2023-01-16T15:13:29;5.30;99.90
70074;DHT22;57445;51.058;3.698;2023-01-16T15:16:18;5.40;99.90
70074;DHT22;57445;51.058;3.698;2023-01-16T15:19:15;5.80;99.90
70074;DHT22;57445;51.058;3.698;2023-01-16T15:21:59;5.50;99.90
70074;DHT22;57445;51.058;3.698;2023-01-16T15:24:26;5.50;99.90
70074;DHT22;57445;51.058;3.698;2023-01-16T15:26:54;5.50;99.90
70074;DHT22;57445;51.058;3.698;2023-01-16T15:29:32;5.50;99.90
70074;DHT22;57445;51.058;3.698;2023-01-16T15:32:03;5.50;99.90
70074;DHT22;57445;51.058;3.698;2023-01-16T15:34:32;5.40;99.90
70074;DHT22;57445;51.058;3.698;2023-01-16T15:37:05;5.40;99.90
70074;DHT22;57445;51.058;3.698;2023-01-16T15:39:45;5.50;99.90
70074;DHT22;57445;51.058;3.698;2023-01-16T15:42:15;5.70;99.90
70074;DHT22;57445;51.058;3.698;2023-01-16T15:45:00;5.50;99.90
70074;DHT22;57445;51.058;3.698;2023-01-16T15:50:42;5.40;99.90
70074;DHT22;57445;51.058;3.698;2023-01-16T15:53:15;5.40;99.90
70074;DHT22;57445;51.058;3.698;2023-01-16T15:55:44;5.40;99.90
70074;DHT22;57445;51.058;3.698;2023-01-16T15:58:13;5.40;99.90
70074;DHT22;57445;51.058;3.698;2023-01-16T16:00:41;5.40;99.90
70074;DHT22;57445;51.058;3.698;2023-01-16T16:03:11;5.30;99.90
70074;DHT22;57445;51.058;3.698;2023-01-16T16:05:46;5.30;99.90
70074;DHT22;57445;51.058;3.698;2023-01-16T16:08:19;5.30;99.90
70074;DHT22;57445;51.058;3.698;2023-01-16T16:10:52;5.20;99.90
70074;DHT22;57445;51.058;3.698;2023-01-16T16:13:42;5.30;99.90
70074;DHT22;57445;51.058;3.698;2023-01-16T16:16:19;5.30;99.90
70074;DHT22;57445;51.058;3.698;2023-01-16T16:19:07;5.30;99.90
70074;DHT22;57445;51.058;3.698;2023-01-16T16:21:37;5.30;99.90
70074;DHT22;57445;51.058;3.698;2023-01-16T16:24:31;5.30;99.90
70074;DHT22;57445;51.058;3.698;2023-01-16T16:27:03;5.30;99.90
70074;DHT22;57445;51.058;3.698;2023-01-16T16:29:37;5.30;99.90
70074;DHT22;57445;51.058;3.698;2023-01-16T16:32:05;5.30;99.90
70074;DHT22;57445;51.058;3.698;2023-01-16T16:34:35;5.20;99.90
70074;DHT22;57445;51.058;3.698;2023-01-16T16:37:04;5.10;99.90
70074;DHT22;57445;51.058;3.698;2023-01-16T16:39:44;5.20;99.90